createdAt,value
2022-12-20T00:01:30.768Z,27.10
2022-12-20T00:04:02.316Z,26.97
2022-12-20T00:06:29.462Z,26.60
2022-12-20T00:09:02.137Z,26.87
2022-12-20T00:11:30.018Z,27.90
2022-12-20T00:13:58.676Z,25.13
2022-12-20T00:16:29.332Z,24.63
2022-12-20T00:18:59.992Z,26.77
2022-12-20T00:21:28.668Z,25.13
2022-12-20T00:23:56.087Z,24.07
2022-12-20T00:26:27.410Z,23.20
2022-12-20T00:28:54.807Z,25.23
2022-12-20T00:31:24.263Z,23.33
2022-12-20T00:33:54.560Z,24.13
2022-12-20T00:36:23.736Z,25.90
2022-12-20T00:38:53.054Z,22.43
2022-12-20T00:41:29.784Z,23.70
2022-12-20T00:43:57.073Z,23.30
2022-12-20T00:46:24.846Z,23.67
2022-12-20T00:48:52.689Z,21.87
2022-12-20T00:51:23.835Z,23.23
2022-12-20T00:53:50.860Z,22.60
2022-12-20T00:56:18.503Z,22.20
2022-12-20T00:58:46.036Z,20.80
2022-12-20T01:01:26.057Z,21.63
2022-12-20T01:03:54.581Z,21.93
2022-12-20T01:06:25.029Z,21.40
2022-12-20T01:08:53.906Z,21.00
2022-12-20T01:11:31.978Z,20.43
2022-12-20T01:14:13.931Z,19.50
2022-12-20T01:16:44.904Z,20.60
2022-12-20T01:19:15.387Z,20.07
2022-12-20T01:21:44.802Z,20.03
2022-12-20T01:24:17.698Z,19.60
2022-12-20T01:26:47.087Z,20.67
2022-12-20T01:29:15.020Z,20.40
2022-12-20T01:31:42.276Z,18.37
2022-12-20T01:34:10.507Z,19.27
2022-12-20T01:36:38.528Z,17.17
2022-12-20T01:39:08.690Z,17.87
2022-12-20T01:41:37.831Z,17.30
2022-12-20T01:44:17.752Z,15.93
2022-12-20T01:46:47.199Z,16.90
2022-12-20T01:49:18.156Z,18.47
2022-12-20T01:51:50.588Z,19.33
2022-12-20T01:54:32.062Z,18.20
2022-12-20T01:57:05.156Z,18.97
2022-12-20T01:59:36.440Z,17.10
2022-12-20T02:02:08.299Z,16.60
2022-12-20T02:04:35.493Z,16.70
2022-12-20T02:07:04.089Z,16.60
2022-12-20T02:09:33.860Z,15.63
2022-12-20T02:12:15.613Z,16.27
2022-12-20T02:15:20.907Z,16.00
2022-12-20T02:17:56.783Z,15.73
2022-12-20T02:21:01.703Z,16.10
2022-12-20T02:24:25.050Z,17.20
2022-12-20T02:27:36.665Z,18.40
2022-12-20T02:30:21.289Z,16.70
2022-12-20T02:32:59.507Z,17.90
2022-12-20T02:35:33.729Z,17.20
2022-12-20T02:38:24.535Z,17.83
2022-12-20T02:41:15.309Z,16.47
2022-12-20T02:44:04.711Z,17.20
2022-12-20T02:46:34.005Z,15.93
2022-12-20T02:49:06.672Z,16.97
2022-12-20T02:51:34.205Z,16.70
2022-12-20T02:54:01.853Z,15.53
2022-12-20T02:56:45.789Z,16.60
2022-12-20T02:59:19.845Z,15.20
2022-12-20T03:01:51.883Z,17.43
2022-12-20T03:04:24.446Z,16.97
2022-12-20T03:07:00.173Z,16.70
2022-12-20T03:09:28.625Z,17.60
2022-12-20T03:11:55.887Z,17.77
2022-12-20T03:14:23.576Z,17.30
2022-12-20T03:16:50.715Z,18.17
2022-12-20T03:19:17.661Z,16.00
2022-12-20T03:21:44.770Z,17.77
2022-12-20T03:24:13.552Z,17.47
2022-12-20T03:26:41.604Z,15.60
2022-12-20T03:29:08.617Z,16.47
2022-12-20T03:31:36.415Z,17.30
2022-12-20T03:34:04.014Z,17.07
2022-12-20T03:36:30.983Z,15.83
2022-12-20T03:38:58.008Z,17.03
2022-12-20T03:41:25.888Z,17.23
2022-12-20T03:43:53.213Z,16.40
2022-12-20T03:46:20.531Z,16.57
2022-12-20T03:48:47.463Z,16.27
2022-12-20T03:51:14.488Z,14.17
2022-12-20T03:53:41.406Z,14.90
2022-12-20T03:56:08.513Z,14.63
2022-12-20T03:58:35.523Z,16.80
2022-12-20T04:01:02.520Z,15.60
2022-12-20T04:03:29.697Z,16.40
2022-12-20T04:05:56.635Z,15.90
2022-12-20T04:08:23.542Z,16.13
2022-12-20T04:11:08.793Z,15.03
2022-12-20T04:13:35.792Z,15.23
2022-12-20T04:16:02.695Z,14.80
2022-12-20T04:18:29.670Z,15.07
2022-12-20T04:20:56.533Z,15.67
2022-12-20T04:23:23.395Z,15.90
2022-12-20T04:25:50.406Z,15.43
2022-12-20T04:28:17.353Z,15.30
2022-12-20T04:30:44.263Z,15.00
2022-12-20T04:33:11.191Z,15.57
2022-12-20T04:35:38.568Z,14.97
2022-12-20T04:38:05.415Z,14.90
2022-12-20T04:40:32.276Z,16.17
2022-12-20T04:42:59.253Z,14.47
2022-12-20T04:45:26.258Z,16.73
2022-12-20T04:47:53.287Z,16.63
2022-12-20T04:50:20.283Z,17.57
2022-12-20T04:53:06.077Z,18.67
2022-12-20T04:55:38.655Z,18.57
2022-12-20T04:58:07.919Z,16.10
2022-12-20T05:00:35.243Z,23.37
2022-12-20T05:03:02.443Z,49.30
2022-12-20T05:05:29.636Z,44.10
2022-12-20T05:07:56.664Z,21.80
2022-12-20T05:10:23.995Z,22.10
2022-12-20T05:12:50.948Z,26.23
2022-12-20T05:15:18.291Z,19.40
2022-12-20T05:17:45.289Z,18.30
2022-12-20T05:20:13.042Z,17.97
2022-12-20T05:22:58.820Z,16.50
2022-12-20T05:25:44.218Z,18.30
2022-12-20T05:28:11.355Z,16.60
2022-12-20T05:30:38.405Z,16.70
2022-12-20T05:33:05.351Z,16.67
2022-12-20T05:35:32.506Z,18.27
2022-12-20T05:37:59.555Z,19.07
2022-12-20T05:40:26.570Z,17.63
2022-12-20T05:42:53.943Z,19.40
2022-12-20T05:45:21.029Z,17.90
2022-12-20T05:47:47.903Z,18.03
2022-12-20T05:50:19.171Z,17.80
2022-12-20T05:52:46.286Z,17.50
2022-12-20T05:55:13.777Z,20.03
2022-12-20T05:57:40.747Z,18.57
2022-12-20T06:00:08.744Z,19.00
2022-12-20T06:02:35.884Z,19.23
2022-12-20T06:05:02.949Z,20.27
2022-12-20T06:07:30.130Z,19.63
2022-12-20T06:09:57.537Z,20.03
2022-12-20T06:12:24.933Z,17.60
2022-12-20T06:14:51.868Z,26.10
2022-12-20T06:17:20.149Z,49.37
2022-12-20T06:19:47.165Z,39.30
2022-12-20T06:22:14.066Z,22.57
2022-12-20T06:24:47.655Z,19.23
2022-12-20T06:27:15.524Z,19.13
2022-12-20T06:29:49.374Z,19.10
2022-12-20T06:32:16.307Z,19.20
2022-12-20T06:34:43.272Z,19.37
2022-12-20T06:37:10.238Z,18.33
2022-12-20T06:39:37.135Z,18.77
2022-12-20T06:42:04.664Z,19.10
2022-12-20T06:44:31.656Z,17.40
2022-12-20T06:46:59.101Z,19.63
2022-12-20T06:49:26.050Z,18.33
2022-12-20T06:51:53.066Z,18.10
2022-12-20T06:54:20.278Z,20.87
2022-12-20T06:56:47.326Z,20.47
2022-12-20T06:59:14.281Z,18.77
2022-12-20T07:01:41.317Z,21.10
2022-12-20T07:04:08.513Z,21.93
2022-12-20T07:06:35.586Z,21.77
2022-12-20T07:09:03.428Z,21.57
2022-12-20T07:11:30.379Z,22.63
2022-12-20T07:13:58.281Z,22.90
2022-12-20T07:16:25.681Z,41.20
2022-12-20T07:18:54.164Z,40.37
2022-12-20T07:21:21.494Z,28.63
2022-12-20T07:23:48.874Z,25.23
2022-12-20T07:26:16.506Z,21.60
2022-12-20T07:28:44.108Z,30.47
2022-12-20T07:31:11.188Z,26.37
2022-12-20T07:33:38.935Z,24.53
2022-12-20T07:36:13.487Z,21.90
2022-12-20T07:38:40.586Z,20.37
2022-12-20T07:41:09.466Z,21.23
2022-12-20T07:43:36.897Z,20.40
2022-12-20T07:46:05.846Z,19.80
2022-12-20T07:48:33.847Z,19.63
2022-12-20T07:51:07.183Z,19.17
2022-12-20T07:53:42.211Z,18.17
2022-12-20T07:56:11.277Z,21.45
2022-12-20T07:58:41.888Z,21.33
2022-12-20T08:01:10.478Z,19.87
2022-12-20T08:03:44.562Z,17.70
2022-12-20T08:06:12.545Z,16.40
2022-12-20T08:08:46.640Z,16.90
2022-12-20T08:11:14.530Z,19.03
2022-12-20T08:13:46.294Z,18.30
2022-12-20T08:16:14.315Z,19.50
2022-12-20T08:18:41.326Z,19.00
2022-12-20T08:21:08.616Z,18.40
2022-12-20T08:23:35.629Z,22.50
2022-12-20T08:26:02.937Z,27.70
2022-12-20T08:28:29.962Z,26.37
2022-12-20T08:31:09.226Z,21.40
2022-12-20T08:33:38.189Z,19.90
2022-12-20T08:36:09.826Z,19.23
2022-12-20T08:38:37.343Z,19.40
2022-12-20T08:41:15.847Z,18.80
2022-12-20T08:43:43.567Z,21.23
2022-12-20T08:46:12.498Z,18.97
2022-12-20T08:48:40.116Z,18.23
2022-12-20T08:51:10.983Z,17.33
2022-12-20T08:53:38.794Z,18.50
2022-12-20T08:56:15.721Z,18.30
2022-12-20T08:58:45.092Z,20.20
2022-12-20T09:01:19.878Z,17.00
2022-12-20T09:03:48.070Z,19.00
2022-12-20T09:06:20.016Z,19.93
2022-12-20T09:08:48.064Z,18.33
2022-12-20T09:11:21.837Z,19.20
2022-12-20T09:13:51.641Z,18.60
2022-12-20T09:16:23.642Z,18.17
2022-12-20T09:19:04.250Z,18.10
2022-12-20T09:21:32.513Z,18.83
2022-12-20T09:23:59.504Z,18.30
2022-12-20T09:26:26.945Z,18.67
2022-12-20T09:28:54.040Z,17.43
2022-12-20T09:31:25.017Z,27.83
2022-12-20T09:33:57.982Z,30.40
2022-12-20T09:36:27.990Z,27.67
2022-12-20T09:38:55.908Z,20.90
2022-12-20T09:41:40.795Z,19.53
2022-12-20T09:44:32.327Z,17.30
2022-12-20T09:47:16.091Z,19.20
2022-12-20T09:49:47.778Z,18.50
2022-12-20T09:52:47.022Z,19.63
2022-12-20T09:55:43.037Z,18.03
2022-12-20T09:58:37.205Z,16.70
2022-12-20T10:01:24.900Z,16.70
2022-12-20T10:03:54.817Z,17.90
2022-12-20T10:07:08.648Z,18.40
2022-12-20T10:10:20.508Z,17.07
2022-12-20T10:13:06.799Z,15.20
2022-12-20T10:16:07.817Z,15.03
2022-12-20T10:18:46.557Z,14.60
2022-12-20T10:22:00.796Z,14.93
2022-12-20T10:24:33.933Z,15.20
2022-12-20T10:27:20.869Z,16.17
2022-12-20T10:29:49.573Z,16.03
2022-12-20T10:32:22.389Z,15.77
2022-12-20T10:35:09.842Z,15.03
2022-12-20T10:37:39.215Z,16.30
2022-12-20T10:41:01.426Z,14.33
2022-12-20T10:43:23.073Z,12.47
2022-12-20T10:46:04.157Z,13.93
2022-12-20T10:48:36.828Z,19.70
2022-12-20T10:51:16.162Z,17.93
2022-12-20T10:54:02.382Z,12.27
2022-12-20T10:56:36.458Z,12.40
2022-12-20T10:59:25.166Z,11.47
2022-12-20T11:01:52.226Z,11.00
2022-12-20T11:04:32.475Z,10.40
2022-12-20T11:07:21.381Z,12.30
2022-12-20T11:10:17.428Z,10.63
2022-12-20T11:12:56.037Z,12.60
2022-12-20T11:15:34.225Z,11.40
2022-12-20T11:18:31.648Z,11.20
2022-12-20T11:21:37.927Z,11.07
2022-12-20T11:25:08.090Z,16.00
2022-12-20T11:28:01.342Z,11.30
2022-12-20T11:30:48.683Z,10.63
2022-12-20T11:33:23.763Z,21.03
2022-12-20T11:35:54.548Z,11.77
2022-12-20T11:39:04.433Z,10.50
2022-12-20T11:41:47.564Z,9.73
2022-12-20T11:44:52.003Z,9.43
2022-12-20T11:47:38.579Z,9.50
2022-12-20T11:50:40.752Z,9.40
2022-12-20T11:53:37.417Z,10.50
2022-12-20T11:56:43.883Z,9.43
2022-12-20T11:59:37.823Z,16.60
2022-12-20T12:02:11.158Z,12.97
2022-12-20T12:04:51.154Z,10.47
2022-12-20T12:07:36.805Z,8.63
2022-12-20T12:10:12.721Z,9.50
2022-12-20T12:12:47.352Z,9.37
2022-12-20T12:15:41.932Z,10.03
2022-12-20T12:18:22.242Z,8.90
2022-12-20T12:21:08.882Z,8.90
2022-12-20T12:23:59.652Z,9.17
2022-12-20T12:26:30.618Z,9.03
2022-12-20T12:29:05.284Z,9.93
2022-12-20T12:32:03.936Z,9.00
2022-12-20T12:34:42.719Z,9.00
2022-12-20T12:37:25.933Z,8.60
2022-12-20T12:40:52.100Z,8.63
2022-12-20T12:43:40.697Z,8.30
2022-12-20T12:46:16.517Z,10.10
2022-12-20T12:49:25.585Z,9.40
2022-12-20T12:51:59.412Z,12.73
2022-12-20T12:54:37.826Z,9.37
2022-12-20T12:57:16.119Z,9.03
2022-12-20T12:59:48.161Z,9.37
2022-12-20T13:02:15.700Z,9.37
2022-12-20T13:05:03.847Z,8.63
2022-12-20T13:07:33.603Z,10.07
2022-12-20T13:10:20.263Z,8.60
2022-12-20T13:12:50.230Z,8.70
2022-12-20T13:15:19.999Z,10.03
2022-12-20T13:17:51.348Z,9.07
2022-12-20T13:20:22.672Z,9.83
2022-12-20T13:23:08.502Z,9.00
2022-12-20T13:25:47.891Z,12.33
2022-12-20T13:28:23.975Z,11.10
2022-12-20T13:30:53.931Z,10.90
2022-12-20T13:33:40.032Z,9.07
2022-12-20T13:36:09.794Z,10.17
2022-12-20T13:38:58.426Z,10.80
2022-12-20T13:41:48.119Z,10.37
2022-12-20T13:44:14.936Z,11.27
2022-12-20T13:46:58.833Z,11.13
2022-12-20T13:49:38.000Z,9.87
2022-12-20T13:52:32.319Z,9.50
2022-12-20T13:55:06.953Z,9.87
2022-12-20T13:57:43.828Z,11.00
2022-12-20T14:00:23.324Z,10.70
2022-12-20T14:02:50.485Z,9.97
2022-12-20T14:05:38.433Z,10.70
2022-12-20T14:08:15.391Z,10.97
2022-12-20T14:10:42.328Z,11.63
2022-12-20T14:13:35.778Z,11.03
2022-12-20T14:16:16.245Z,10.00
2022-12-20T14:19:00.118Z,10.80
2022-12-20T14:21:27.913Z,10.83
2022-12-20T14:23:57.969Z,11.23
2022-12-20T14:26:33.423Z,9.63
2022-12-20T14:29:01.502Z,10.37
2022-12-20T14:31:39.439Z,10.73
2022-12-20T14:34:17.648Z,9.27
2022-12-20T14:36:47.867Z,9.90
2022-12-20T14:39:28.950Z,10.40
2022-12-20T14:42:09.785Z,11.20
2022-12-20T14:44:36.844Z,9.40
2022-12-20T14:47:23.206Z,11.20
2022-12-20T14:49:56.796Z,11.47
2022-12-20T14:52:37.982Z,10.57
2022-12-20T14:55:16.244Z,11.80
2022-12-20T14:57:54.227Z,11.60
2022-12-20T15:00:27.952Z,14.97
2022-12-20T15:03:02.187Z,13.90
2022-12-20T15:05:35.982Z,16.17
2022-12-20T15:08:15.314Z,13.97
2022-12-20T15:11:08.587Z,15.60
2022-12-20T15:13:39.382Z,14.13
2022-12-20T15:16:21.775Z,14.43
2022-12-20T15:18:55.955Z,13.17
2022-12-20T15:21:32.631Z,10.93
2022-12-20T15:24:09.659Z,12.43
2022-12-20T15:26:37.704Z,13.20
2022-12-20T15:29:05.788Z,15.27
2022-12-20T15:31:36.326Z,16.17
2022-12-20T15:34:29.268Z,19.00
2022-12-20T15:36:56.795Z,20.37
2022-12-20T15:39:24.659Z,20.10
2022-12-20T15:41:51.720Z,23.17
2022-12-20T15:44:25.808Z,22.13
2022-12-20T15:46:53.073Z,24.17
2022-12-20T15:49:30.739Z,23.00
2022-12-20T15:51:58.126Z,23.57
2022-12-20T15:54:36.854Z,24.83
2022-12-20T15:57:09.938Z,24.77
2022-12-20T16:02:27.745Z,26.60
2022-12-20T16:04:55.705Z,24.87
2022-12-20T16:07:23.726Z,23.73
2022-12-20T16:09:50.666Z,25.00
2022-12-20T16:12:32.832Z,25.20
2022-12-20T16:14:59.729Z,24.33
2022-12-20T16:17:26.690Z,27.63
2022-12-20T16:19:53.688Z,28.10
2022-12-20T16:22:23.743Z,28.63
2022-12-20T16:24:51.866Z,26.53
2022-12-20T16:27:19.954Z,26.73
2022-12-20T16:29:46.953Z,27.47
2022-12-20T16:32:20.135Z,24.90
2022-12-20T16:34:49.417Z,24.30
2022-12-20T16:37:18.033Z,21.70
2022-12-20T16:39:45.592Z,21.90
2022-12-20T16:42:18.242Z,22.53
2022-12-20T16:44:46.249Z,25.03
2022-12-20T16:47:14.930Z,23.70
2022-12-20T16:49:51.160Z,25.40
2022-12-20T16:52:19.194Z,21.67
2022-12-20T16:54:47.709Z,21.27
2022-12-20T16:57:14.606Z,22.20
2022-12-20T16:59:41.557Z,20.23
2022-12-20T17:02:28.344Z,20.60
2022-12-20T17:04:55.683Z,19.20
2022-12-20T17:07:22.638Z,21.07
2022-12-20T17:12:34.199Z,19.27
2022-12-20T17:15:01.099Z,19.80
2022-12-20T17:17:28.064Z,19.20
2022-12-20T17:19:55.086Z,18.43
2022-12-20T17:25:17.628Z,17.80
2022-12-20T17:27:44.532Z,18.10
2022-12-20T17:30:12.455Z,16.20
2022-12-20T17:32:39.649Z,18.80
2022-12-20T17:35:12.853Z,18.73
2022-12-20T17:37:39.749Z,16.30
2022-12-20T17:40:07.661Z,18.27
2022-12-20T17:42:34.520Z,19.00
2022-12-20T17:45:01.448Z,18.90
2022-12-20T17:47:28.420Z,19.80
2022-12-20T17:49:55.358Z,18.30
2022-12-20T17:52:22.373Z,20.50
2022-12-20T17:54:49.349Z,20.30
2022-12-20T17:57:16.717Z,19.37
2022-12-20T17:59:43.889Z,19.47
2022-12-20T18:02:25.245Z,19.20
2022-12-20T18:04:53.264Z,17.23
2022-12-20T18:07:20.543Z,19.20
2022-12-20T18:09:48.524Z,19.07
2022-12-20T18:12:17.258Z,19.67
2022-12-20T18:14:44.877Z,17.87
2022-12-20T18:17:11.960Z,18.03
2022-12-20T18:19:39.506Z,24.50
2022-12-20T18:22:06.500Z,21.03
2022-12-20T18:24:33.676Z,18.60
2022-12-20T18:27:00.730Z,20.20
2022-12-20T18:29:28.493Z,21.07
2022-12-20T18:31:55.546Z,20.10
2022-12-20T18:34:22.791Z,21.17
2022-12-20T18:36:49.691Z,18.77
2022-12-20T18:39:16.764Z,20.67
2022-12-20T18:41:44.271Z,21.07
2022-12-20T18:44:11.835Z,19.60
2022-12-20T18:46:38.982Z,20.47
2022-12-20T18:49:05.967Z,18.33
2022-12-20T18:51:39.335Z,19.83
2022-12-20T18:54:08.422Z,18.40
2022-12-20T18:56:38.109Z,18.10
2022-12-20T18:59:11.411Z,19.10
2022-12-20T19:01:40.320Z,17.97
2022-12-20T19:04:08.331Z,19.20
2022-12-20T19:06:37.321Z,18.70
2022-12-20T19:09:08.528Z,17.60
2022-12-20T19:11:36.046Z,19.93
2022-12-20T19:14:03.633Z,18.83
2022-12-20T19:16:32.856Z,18.10
2022-12-20T19:19:01.941Z,19.17
2022-12-20T19:21:32.737Z,18.80
2022-12-20T19:24:05.052Z,20.20
2022-12-20T19:26:32.162Z,19.57
2022-12-20T19:28:59.368Z,18.47
2022-12-20T19:31:30.505Z,20.50
2022-12-20T19:34:02.284Z,20.17
2022-12-20T19:36:34.993Z,19.80
2022-12-20T19:39:07.381Z,20.33
2022-12-20T19:41:35.775Z,21.40
2022-12-20T19:44:03.926Z,20.93
2022-12-20T19:46:31.308Z,19.47
2022-12-20T19:49:00.456Z,18.57
2022-12-20T19:51:28.895Z,15.63
2022-12-20T19:53:58.187Z,20.50
2022-12-20T19:56:31.750Z,19.47
2022-12-20T19:58:58.733Z,14.17
2022-12-20T20:01:27.810Z,14.87
2022-12-20T20:03:58.151Z,13.47
2022-12-20T20:06:27.264Z,13.90
2022-12-20T20:08:57.833Z,12.90
2022-12-20T20:11:25.061Z,13.77
2022-12-20T20:13:52.075Z,13.10
2022-12-20T20:16:22.591Z,13.97
2022-12-20T20:18:50.977Z,13.10
2022-12-20T20:21:22.752Z,14.73
2022-12-20T20:23:51.753Z,13.90
2022-12-20T20:26:23.320Z,15.67
2022-12-20T20:28:50.466Z,13.60
2022-12-20T20:31:19.744Z,13.30
2022-12-20T20:33:47.511Z,13.70
2022-12-20T20:36:18.242Z,13.70
2022-12-20T20:38:45.812Z,16.50
2022-12-20T20:41:14.062Z,37.73
2022-12-20T20:43:41.615Z,27.73
2022-12-20T20:46:11.987Z,15.17
2022-12-20T20:48:39.785Z,12.33
2022-12-20T20:51:07.477Z,11.83
2022-12-20T20:53:35.566Z,12.27
2022-12-20T20:56:04.823Z,12.77
2022-12-20T20:58:31.900Z,12.07
2022-12-20T21:01:02.448Z,11.93
2022-12-20T21:03:30.808Z,11.03
2022-12-20T21:08:45.073Z,10.80
2022-12-20T21:11:12.509Z,11.20
2022-12-20T21:13:39.573Z,11.30
2022-12-20T21:16:20.753Z,11.67
2022-12-20T21:18:52.905Z,12.70
2022-12-20T21:21:20.802Z,11.40
2022-12-20T21:23:48.547Z,12.27
2022-12-20T21:26:17.184Z,12.20
2022-12-20T21:28:45.542Z,12.40
2022-12-20T21:31:17.220Z,11.90
2022-12-20T21:33:46.163Z,12.27
2022-12-20T21:36:19.489Z,10.97
2022-12-20T21:38:52.229Z,11.33
2022-12-20T21:41:23.169Z,13.13
2022-12-20T21:43:51.304Z,12.90
2022-12-20T21:46:18.308Z,11.87
2022-12-20T21:48:45.556Z,12.00
2022-12-20T21:51:16.680Z,11.83
2022-12-20T21:53:43.559Z,12.13
2022-12-20T21:56:11.013Z,12.20
2022-12-20T21:58:38.604Z,11.73
2022-12-20T22:01:07.949Z,13.77
2022-12-20T22:03:36.880Z,11.40
2022-12-20T22:06:04.559Z,12.43
2022-12-20T22:08:33.219Z,13.57
2022-12-20T22:11:06.035Z,12.50
2022-12-20T22:13:40.846Z,11.07
2022-12-20T22:16:25.453Z,11.37
2022-12-20T22:18:55.712Z,12.10
2022-12-20T22:21:27.457Z,11.87
2022-12-20T22:23:55.884Z,11.37
2022-12-20T22:26:26.334Z,11.77
2022-12-20T22:28:57.334Z,12.27
2022-12-20T22:31:25.988Z,11.90
2022-12-20T22:33:54.780Z,13.17
2022-12-20T22:36:25.398Z,11.70
2022-12-20T22:38:54.086Z,13.27
2022-12-20T22:41:28.862Z,11.80
2022-12-20T22:43:58.531Z,12.53
2022-12-20T22:46:25.700Z,12.03
2022-12-20T22:48:52.861Z,12.40
2022-12-20T22:51:22.128Z,13.60
2022-12-20T22:53:49.444Z,12.77
2022-12-20T22:56:18.795Z,13.03
2022-12-20T22:58:45.812Z,13.73
2022-12-20T23:01:15.224Z,13.53
2022-12-20T23:03:42.616Z,13.53
2022-12-20T23:06:14.989Z,13.03
2022-12-20T23:08:42.476Z,14.00
2022-12-20T23:11:37.275Z,13.57
2022-12-20T23:14:24.077Z,13.10
2022-12-20T23:16:51.588Z,13.23
2022-12-20T23:19:18.636Z,14.43
2022-12-20T23:22:03.975Z,12.10
2022-12-20T23:24:31.010Z,12.60
2022-12-20T23:26:58.087Z,12.33
2022-12-20T23:29:25.107Z,13.70
2022-12-20T23:31:52.095Z,12.70
2022-12-20T23:34:19.783Z,11.47
2022-12-20T23:36:46.766Z,12.30
2022-12-20T23:39:13.748Z,11.57
2022-12-20T23:41:40.734Z,12.27
2022-12-20T23:44:07.755Z,12.37
2022-12-20T23:46:34.879Z,13.63
2022-12-20T23:49:01.775Z,12.17
2022-12-20T23:51:28.737Z,13.50
2022-12-20T23:53:55.639Z,12.80
2022-12-20T23:56:23.484Z,12.17
2022-12-20T23:58:53.762Z,12.83
